This is the latest recevied weather packets stored in our database for station/object XE1E-15. If no packets are shown the sender has not sent any weather packets the latest 10 day(s).
| Time | Temp. | Humidity | Pressure | Rain* | Wind** | Luminosity | Snow |
|---|---|---|---|---|---|---|---|
| 1777274131 | 23.33° C | 43% | 1023.4 hPa | - | - | - | - |
| 1777273171 | 23.89° C | 43% | 1023.6 hPa | - | - | - | - |
| 1777272211 | 23.89° C | 43% | 1023.8 hPa | - | - | - | - |
| 1777271251 | 24.44° C | 41% | 1023.7 hPa | - | - | - | - |
| 1777270291 | 24.44° C | 42% | 1023.8 hPa | - | - | - | - |
| 1777269331 | 24.44° C | 42% | 1023.9 hPa | - | - | - | - |
| 1777268477 | 24.44° C | 41% | 1024 hPa | - | - | - | - |
| 1777268371 | 24.44° C | 41% | 1024 hPa | - | - | - | - |
| 1777267411 | 23.89° C | 42% | 1024 hPa | - | - | - | - |
| 1777266451 | 23.89° C | 42% | 1024 hPa | - | - | - | - |
| 1777265491 | 24.44° C | 42% | 1024 hPa | - | - | - | - |
| 1777264531 | 24.44° C | 41% | 1023.8 hPa | - | - | - | - |
| 1777263570 | 24.44° C | 41% | 1023.7 hPa | - | - | - | - |
| 1777262610 | 24.44° C | 41% | 1023.9 hPa | - | - | - | - |
| 1777261650 | 25° C | 40% | 1023.7 hPa | - | - | - | - |
| 1777260690 | 25° C | 40% | 1023.6 hPa | - | - | - | - |
| 1777259730 | 24.44° C | 40% | 1023.2 hPa | - | - | - | - |
| 1777258770 | 23.33° C | 41% | 1023.2 hPa | - | - | - | - |
| 1777257845 | 22.78° C | 42% | 1023 hPa | - | - | - | - |
| 1777257810 | 22.78° C | 42% | 1023 hPa | - | - | - | - |
| 1777256850 | 22.78° C | 42% | 1023 hPa | - | - | - | - |
| 1777255889 | 22.78° C | 42% | 1023 hPa | - | - | - | - |
| 1777254928 | 23.89° C | 35% | 1022.6 hPa | - | - | - | - |
| 1777253491 | 24.44° C | 35% | 1021.4 hPa | - | - | - | - |
| 1777252531 | 25° C | 37% | 1021 hPa | - | - | - | - |
* Rain since midnight (hover to see other rain measurements)
** Current wind speed in m/s (hover to see current wind gust speed)